Time;durP1;ratioP1;P1;durP2;ratioP2;P2;SDS_P1;SDS_P2;PMS_P1;PMS_P2;Temp;Humidity;BMP_temperature;BMP_pressure;BME280_temperature;BME280_humidity;BME280_pressure;Samples;Min_cycle;Max_cycle;Signal;HPM_P1;HPM_P2
2022/06/16 00:02:21;;;;;;;1.75;1.10;;;24.90;90.60;;;;;;5092793;28;20063;-46
2022/06/16 00:04:47;;;;;;;2.67;1.10;;;24.70;82.80;;;;;;5092394;28;20099;-46
2022/06/16 00:07:15;;;;;;;1.58;1.17;;;24.50;55.30;;;;;;5093401;28;20148;-56
2022/06/16 00:09:41;;;;;;;1.10;1.00;;;;;;;;;;5093205;28;20421;-56
2022/06/16 00:12:07;;;;;;;1.10;1.00;;;;;;;;;;5093192;28;20052;-56
2022/06/16 00:14:33;;;;;;;1.33;1.00;;;;;;;;;;5093245;28;20394;-56
2022/06/16 00:16:59;;;;;;;1.38;0.90;;;;;;;;;;5092949;28;20063;-56
2022/06/16 00:19:25;;;;;;;1.92;1.10;;;;;;;;;;5093119;28;20020;-54
2022/06/16 00:21:52;;;;;;;1.20;1.10;;;;;;;;;;5092775;28;20398;-55
2022/06/16 00:24:17;;;;;;;0.90;0.80;;;24.70;90.50;;;;;;5093093;28;20024;-56
2022/06/16 00:26:43;;;;;;;1.67;1.10;;;;;;;;;;5092817;28;20084;-46
2022/06/16 00:29:09;;;;;;;1.65;0.88;;;;;;;;;;5092688;28;20028;-47
2022/06/16 00:31:36;;;;;;;2.00;1.20;;;24.50;68.50;;;;;;5092686;28;20489;-46
2022/06/16 00:34:02;;;;;;;1.38;0.88;;;24.50;90.40;;;;;;5092878;28;20024;-46
2022/06/16 00:36:28;;;;;;;3.08;1.05;;;;;;;;;;5092550;28;20102;-45
2022/06/16 00:38:54;;;;;;;1.13;1.00;;;;;;;;;;5092553;28;20024;-45
2022/06/16 00:41:20;;;;;;;1.92;1.30;;;;;;;;;;5092358;28;20158;-46
2022/06/16 00:43:45;;;;;;;1.15;1.00;;;24.40;90.20;;;;;;5092497;28;20031;-47
2022/06/16 00:46:17;;;;;;;3.55;1.00;;;24.80;63.40;;;;;;5092773;28;20012;-47
2022/06/16 00:48:43;;;;;;;2.13;1.30;;;;;;;;;;5092383;28;20056;-46
2022/06/16 00:51:34;;;;;;;1.77;1.10;;;24.40;52.20;;;;;;5092487;28;20060;-48
2022/06/16 00:54:11;;;;;;;4.43;1.35;;;24.20;90.10;;;;;;5092352;28;20028;-47
2022/06/16 00:56:37;;;;;;;0.95;0.73;;;;;;;;;;5092386;28;20028;-46
2022/06/16 00:59:05;;;;;;;1.73;1.33;;;24.40;54.50;;;;;;5092523;28;20035;-46
2022/06/16 01:01:33;;;;;;;1.40;1.00;;;24.20;53.60;;;;;;5092229;28;20054;-55
2022/06/16 01:06:44;;;;;;;2.28;1.20;;;24.50;88.60;;;;;;5092590;28;20120;-55
2022/06/16 01:09:13;;;;;;;1.15;1.05;;;24.50;90.10;;;;;;5092422;28;20425;-56
2022/06/16 01:15:27;;;;;;;1.00;0.90;;;24.00;51.60;;;;;;5093467;28;20035;-55
2022/06/16 01:18:12;;;;;;;1.40;0.90;;;24.60;54.60;;;;;;5096419;28;20390;-57
2022/06/16 01:20:56;;;;;;;1.48;0.90;;;24.20;90.10;;;;;;5096353;28;20040;-46
2022/06/16 01:23:50;;;;;;;1.48;1.00;;;24.20;90.20;;;;;;5096531;28;20300;-46
2022/06/16 01:26:27;;;;;;;2.22;1.05;;;24.20;90.30;;;;;;5096247;28;20056;-46
2022/06/16 01:29:17;;;;;;;1.40;1.23;;;24.20;90.40;;;;;;5096467;28;20512;-46
2022/06/16 01:32:13;;;;;;;1.50;1.08;;;24.30;51.70;;;;;;5096112;28;20032;-45
2022/06/16 01:34:53;;;;;;;1.40;1.10;;;24.50;90.60;;;;;;5096390;28;20032;-45
2022/06/16 01:37:35;;;;;;;1.35;1.10;;;24.00;75.90;;;;;;5096079;28;20515;-46
2022/06/16 01:40:13;;;;;;;1.27;1.17;;;24.30;56.00;;;;;;5095975;28;20032;-46
2022/06/16 01:42:57;;;;;;;1.63;1.20;;;24.30;51.90;;;;;;5095922;28;20488;-47
2022/06/16 01:45:33;;;;;;;1.55;1.20;;;24.30;52.00;;;;;;5096155;28;20032;-46
2022/06/16 01:48:00;;;;;;;1.80;1.10;;;24.30;55.60;;;;;;5095927;28;20035;-45
2022/06/16 01:50:33;;;;;;;2.35;1.17;;;24.40;91.80;;;;;;5095728;28;20028;-46
2022/06/16 01:53:40;;;;;;;1.50;1.20;;;24.20;52.00;;;;;;5095815;28;20074;-47
2022/06/16 01:56:24;;;;;;;1.63;1.00;;;24.30;56.60;;;;;;5095107;28;20068;-48
2022/06/16 01:58:57;;;;;;;1.45;1.00;;;24.30;55.70;;;;;;5095760;28;20115;-47
2022/06/16 02:01:24;;;;;;;1.30;0.85;;;24.20;55.60;;;;;;5095463;28;20394;-46
2022/06/16 02:03:55;;;;;;;1.30;1.20;;;24.20;55.30;;;;;;5095403;28;20036;-47
2022/06/16 02:06:23;;;;;;;;;;;24.10;55.90;;;;;;5096177;28;20078;-47
2022/06/16 02:08:55;;;;;;;1.10;1.00;;;24.30;54.90;;;;;;5095652;28;19904;-46
2022/06/16 02:11:30;;;;;;;1.48;1.27;;;24.50;90.70;;;;;;5095426;28;20383;-46
2022/06/16 02:14:40;;;;;;;0.88;0.75;;;24.30;90.60;;;;;;5095338;28;20563;-46
2022/06/16 02:17:09;;;;;;;1.77;1.15;;;24.20;55.10;;;;;;5095615;28;20027;-56
2022/06/16 02:19:35;;;;;;;0.98;0.77;;;;;;;;;;5095088;28;20043;-55
2022/06/16 02:22:01;;;;;;;1.83;1.27;;;24.10;90.40;;;;;;5095146;28;20107;-56
2022/06/16 02:24:28;;;;;;;1.45;1.30;;;24.00;62.20;;;;;;5095114;28;20031;-56
2022/06/16 02:26:56;;;;;;;2.20;1.30;;;24.10;90.30;;;;;;5094152;28;20040;-53
2022/06/16 02:29:22;;;;;;;1.95;1.33;;;24.40;90.30;;;;;;5095064;28;20391;-55
2022/06/16 02:31:57;;;;;;;1.50;1.10;;;24.10;85.70;;;;;;5094888;28;20035;-55
2022/06/16 02:34:37;;;;;;;1.58;1.40;;;24.30;90.30;;;;;;5095244;28;20423;-56
2022/06/16 02:37:33;;;;;;;1.23;1.13;;;24.20;72.40;;;;;;5094966;28;20402;-56
2022/06/16 02:40:10;;;;;;;1.48;1.35;;;22.70;50.90;;;;;;5094826;28;20122;-56
2022/06/16 02:43:17;;;;;;;1.75;1.10;;;24.10;56.30;;;;;;5094730;28;20499;-54
2022/06/16 02:45:43;;;;;;;1.20;1.10;;;;;;;;;;5094172;28;20055;-56
2022/06/16 02:48:20;;;;;;;1.58;1.38;;;24.30;76.20;;;;;;5094726;28;20478;-55
2022/06/16 02:50:49;;;;;;;2.78;1.33;;;24.20;90.70;;;;;;5094623;28;20020;-56
2022/06/16 02:53:42;;;;;;;1.20;1.05;;;24.40;90.70;;;;;;5094684;28;20474;-56
2022/06/16 02:56:16;;;;;;;1.88;1.40;;;24.10;90.50;;;;;;5094552;28;20028;-55
2022/06/16 02:58:44;;;;;;;1.00;1.00;;;23.60;90.20;;;;;;5094531;28;20103;-56
2022/06/16 03:01:10;;;;;;;3.08;1.10;;;24.00;90.10;;;;;;5094388;28;20047;-57
2022/06/16 03:03:37;;;;;;;1.35;1.25;;;24.10;90.10;;;;;;5094193;28;20075;-55
2022/06/16 03:06:03;;;;;;;1.88;1.10;;;24.20;90.00;;;;;;5094498;28;20133;-56
2022/06/16 03:08:39;;;;;;;3.00;1.20;;;24.00;54.20;;;;;;5094553;28;20394;-56
2022/06/16 03:11:06;;;;;;;1.92;1.15;;;23.80;89.90;;;;;;5094594;28;20020;-56
2022/06/16 03:13:33;;;;;;;2.45;1.20;;;23.80;90.00;;;;;;5094161;28;20028;-56
2022/06/16 03:16:01;;;;;;;2.05;1.17;;;24.10;90.00;;;;;;5094111;28;20027;-55
2022/06/16 03:18:26;;;;;;;1.65;1.10;;;24.20;90.20;;;;;;5094143;28;20050;-56
2022/06/16 03:20:52;;;;;;;2.00;1.17;;;23.50;89.90;;;;;;5094199;28;20651;-54
2022/06/16 03:23:19;;;;;;;2.97;1.30;;;23.80;89.70;;;;;;5094028;28;20036;-55
2022/06/16 03:25:46;;;;;;;1.55;1.27;;;;;;;;;;5093960;28;20120;-55
2022/06/16 03:28:12;;;;;;;1.33;1.02;;;23.60;88.90;;;;;;5093794;28;20028;-56
2022/06/16 03:30:39;;;;;;;1.77;1.25;;;24.00;90.20;;;;;;5094149;28;20067;-46
2022/06/16 03:33:08;;;;;;;1.50;1.33;;;23.90;90.10;;;;;;5093751;28;20024;-46
2022/06/16 03:35:34;;;;;;;1.30;1.20;;;24.10;90.40;;;;;;5093877;28;20070;-46
2022/06/16 03:38:10;;;;;;;1.08;1.02;;;;;;;;;;5093660;28;20403;-45
2022/06/16 03:40:36;;;;;;;1.38;1.27;;;;;;;;;;5093598;28;20036;-46
2022/06/16 03:43:05;;;;;;;2.45;1.27;;;24.00;90.10;;;;;;5093551;28;20035;-46
2022/06/16 03:45:30;;;;;;;1.55;1.02;;;23.80;90.20;;;;;;5093586;28;20016;-45
2022/06/16 03:47:56;;;;;;;1.60;1.42;;;24.00;90.40;;;;;;5093753;28;20022;-45
2022/06/16 03:50:22;;;;;;;1.23;1.13;;;;;;;;;;5093441;28;20100;-46
2022/06/16 03:52:48;;;;;;;2.65;1.42;;;;;;;;;;5093365;28;20100;-46
2022/06/16 03:55:13;;;;;;;3.55;1.27;;;23.90;90.50;;;;;;5093323;28;20039;-46
2022/06/16 03:57:39;;;;;;;1.67;1.38;;;;;;;;;;5093367;28;20044;-45
2022/06/16 04:00:08;;;;;;;1.73;1.00;;;23.80;59.20;;;;;;5093104;28;20106;-45
2022/06/16 04:02:34;;;;;;;1.88;1.23;;;23.70;90.30;;;;;;5093143;28;20051;-46
2022/06/16 04:05:01;;;;;;;1.30;0.90;;;;;;;;;;5093413;28;20028;-46
2022/06/16 04:07:27;;;;;;;2.53;1.40;;;;;;;;;;5093126;28;20107;-55
2022/06/16 04:09:53;;;;;;;1.90;1.30;;;;;;;;;;5092965;28;20498;-56
2022/06/16 04:12:19;;;;;;;1.10;1.00;;;;;;;;;;5092922;28;20032;-55
2022/06/16 04:14:45;;;;;;;0.95;0.75;;;;;;;;;;5093006;28;20107;-56
2022/06/16 04:17:11;;;;;;;1.70;1.10;;;;;;;;;;5092941;28;20028;-56
2022/06/16 04:20:11;;;;;;;2.25;1.10;;;;;;;;;;5092935;28;20028;-56
2022/06/16 04:22:23;;;;;;;1.33;1.17;;;;;;;;;;5092707;28;20132;-56
2022/06/16 04:24:49;;;;;;;3.95;1.50;;;;;;;;;;5092908;28;20055;-56
2022/06/16 04:27:14;;;;;;;3.00;1.20;;;24.00;90.80;;;;;;5092845;28;20038;-57
2022/06/16 04:29:40;;;;;;;1.25;1.15;;;;;;;;;;5092739;28;20406;-57
2022/06/16 04:32:07;;;;;;;2.72;1.80;;;23.60;90.80;;;;;;5092634;28;20054;-56
2022/06/16 04:34:32;;;;;;;2.30;1.30;;;23.60;90.80;;;;;;5092646;28;20036;-55
2022/06/16 04:36:58;;;;;;;1.38;1.05;;;24.10;90.90;;;;;;5092538;28;20037;-55
2022/06/16 04:39:24;;;;;;;1.60;1.20;;;23.70;91.00;;;;;;5092840;28;20020;-56
2022/06/16 04:41:50;;;;;;;1.33;1.23;;;;;;;;;;5092498;28;20123;-56
2022/06/16 04:44:16;;;;;;;2.92;1.10;;;;;;;;;;5092582;28;20024;-46
2022/06/16 04:46:42;;;;;;;1.90;1.08;;;;;;;;;;5092452;28;20491;-47
2022/06/16 04:49:09;;;;;;;2.22;1.70;;;;;;;;;;5092071;28;20107;-46
2022/06/16 04:51:35;;;;;;;1.20;1.10;;;23.80;55.10;;;;;;5092348;28;20427;-47
2022/06/16 04:54:01;;;;;;;1.42;1.30;;;;;;;;;;5092422;28;20032;-47
2022/06/16 04:56:27;;;;;;;2.50;1.20;;;;;;;;;;5092314;28;20103;-47
2022/06/16 04:58:53;;;;;;;1.42;1.10;;;;;;;;;;5092542;28;20443;-48
2022/06/16 05:01:19;;;;;;;1.95;1.13;;;;;;;;;;5092145;28;20040;-46
2022/06/16 05:03:45;;;;;;;1.42;1.15;;;;;;;;;;5092216;28;20063;-46
2022/06/16 05:06:11;;;;;;;1.42;1.17;;;;;;;;;;5092109;28;20052;-47
2022/06/16 05:08:37;;;;;;;1.73;1.25;;;;;;;;;;5092165;28;20020;-47
2022/06/16 05:11:03;;;;;;;1.67;1.40;;;;;;;;;;5092162;28;20036;-47
2022/06/16 05:13:29;;;;;;;1.75;1.30;;;;;;;;;;5092110;28;20103;-47
2022/06/16 05:15:55;;;;;;;2.00;1.48;;;;;;;;;;5092305;28;20024;-48
2022/06/16 05:18:22;;;;;;;0.93;0.85;;;;;;;;;;5092073;28;20355;-48
2022/06/16 05:20:48;;;;;;;3.17;1.00;;;;;;;;;;5092110;28;20046;-47
2022/06/16 05:23:14;;;;;;;4.03;1.20;;;;;;;;;;5092055;28;20390;-47
2022/06/16 05:25:40;;;;;;;1.23;1.13;;;23.80;54.60;;;;;;5092065;28;20035;-46
2022/06/16 05:28:06;;;;;;;2.42;1.15;;;23.50;90.90;;;;;;5092194;28;20046;-47
2022/06/16 05:30:33;;;;;;;1.52;1.42;;;23.80;53.40;;;;;;5091964;28;20081;-48
2022/06/16 05:32:58;;;;;;;1.70;1.30;;;24.00;91.10;;;;;;5091998;28;20103;-47
2022/06/16 05:35:24;;;;;;;1.20;1.10;;;24.00;90.00;;;;;;5091900;28;20060;-48
2022/06/16 05:37:50;;;;;;;1.35;0.95;;;24.00;91.10;;;;;;5092227;28;20016;-48
2022/06/16 05:40:16;;;;;;;2.30;1.40;;;;;;;;;;5091914;28;20474;-48
2022/06/16 05:42:42;;;;;;;1.60;1.50;;;;;;;;;;5091837;28;20107;-48
2022/06/16 05:45:10;;;;;;;1.80;1.42;;;24.00;89.50;;;;;;5091834;28;20107;-48
2022/06/16 05:47:37;;;;;;;2.05;1.17;;;23.50;91.20;;;;;;5091740;28;20028;-47
2022/06/16 05:50:03;;;;;;;2.22;1.00;;;;;;;;;;5091738;28;20036;-49
2022/06/16 05:52:29;;;;;;;1.67;1.00;;;;;;;;;;5091747;28;20081;-48
2022/06/16 05:54:56;;;;;;;2.55;1.00;;;;;;;;;;5092002;28;20024;-48
2022/06/16 05:57:22;;;;;;;1.40;1.02;;;;;;;;;;5092015;28;20463;-47
2022/06/16 05:59:48;;;;;;;0.90;0.90;;;;;;;;;;5091859;28;20028;-48
2022/06/16 06:02:16;;;;;;;1.50;1.20;;;23.90;56.70;;;;;;5093137;28;20135;-49
2022/06/16 06:04:42;;;;;;;4.80;1.10;;;23.80;56.60;;;;;;5095392;28;20024;-50
2022/06/16 06:07:08;;;;;;;1.30;1.13;;;;;;;;;;5077319;28;20035;-48
2022/06/16 06:18:16;;;;;;;3.00;1.27;;;23.90;53.80;;;;;;5094542;28;20070;-52
2022/06/16 06:20:42;;;;;;;5.13;1.33;;;;;;;;;;5095344;28;20031;-51
2022/06/16 06:23:08;;;;;;;3.70;1.42;;;23.90;90.40;;;;;;5095367;28;20171;-50
2022/06/16 06:25:34;;;;;;;1.20;1.08;;;23.50;90.40;;;;;;5095288;28;20098;-53
2022/06/16 06:28:00;;;;;;;1.75;1.05;;;;;;;;;;5095542;28;20043;-53
2022/06/16 06:30:29;;;;;;;4.57;1.35;;;23.90;54.50;;;;;;5095116;28;20032;-54
2022/06/16 06:32:56;;;;;;;3.45;1.40;;;23.90;53.90;;;;;;5095049;28;20388;-48
2022/06/16 06:35:22;;;;;;;1.75;1.35;;;;;;;;;;5077122;28;20486;-48
2022/06/16 06:37:49;;;;;;;1.20;0.90;;;;;;;;;;5095324;28;20032;-48
2022/06/16 06:40:37;;;;;;;1.85;1.10;;;24.00;55.10;;;;;;5095058;28;20127;-47
2022/06/16 06:43:04;;;;;;;3.50;1.13;;;;;;;;;;5094847;28;20116;-49
2022/06/16 06:45:30;;;;;;;2.15;1.13;;;;;;;;;;5094738;28;20063;-49
2022/06/16 06:47:57;;;;;;;2.67;1.02;;;24.20;90.70;;;;;;5095069;28;20024;-49
2022/06/16 06:50:26;;;;;;;4.20;1.10;;;24.00;55.00;;;;;;5094827;28;20043;-48
2022/06/16 06:52:52;;;;;;;2.40;0.95;;;23.90;52.50;;;;;;5094734;28;20020;-49
2022/06/16 06:55:19;;;;;;;1.92;1.05;;;24.10;90.40;;;;;;5094660;28;20050;-49
2022/06/16 06:57:45;;;;;;;2.20;0.80;;;24.20;90.60;;;;;;5094616;28;20024;-51
2022/06/16 07:00:16;;;;;;;3.25;1.10;;;24.00;53.90;;;;;;5094369;28;20032;-51
2022/06/16 07:02:42;;;;;;;4.75;1.05;;;;;;;;;;5094156;28;20056;-49
2022/06/16 07:05:08;;;;;;;1.48;0.73;;;;;;;;;;5094508;28;20031;-52
2022/06/16 07:07:35;;;;;;;1.42;1.00;;;24.00;90.00;;;;;;5094770;28;20102;-51
2022/06/16 07:10:01;;;;;;;2.20;1.10;;;;;;;;;;5094307;28;20028;-49
2022/06/16 07:12:27;;;;;;;5.60;1.10;;;;;;;;;;5093905;28;20097;-49
2022/06/16 07:14:52;;;;;;;2.20;0.88;;;24.20;90.00;;;;;;5094247;28;20364;-50
2022/06/16 07:17:21;;;;;;;1.25;1.00;;;24.30;90.10;;;;;;5094145;28;20020;-50
2022/06/16 07:19:47;;;;;;;2.55;0.60;;;24.30;90.30;;;;;;5094158;28;20055;-50
2022/06/16 07:22:12;;;;;;;3.25;0.98;;;23.50;90.00;;;;;;5094175;28;20028;-49
2022/06/16 07:24:38;;;;;;;1.98;1.13;;;24.20;90.10;;;;;;5094060;28;20028;-49
2022/06/16 07:27:04;;;;;;;1.70;0.90;;;24.00;90.20;;;;;;5094310;28;20028;-49
2022/06/16 07:29:30;;;;;;;1.52;0.90;;;24.00;90.50;;;;;;5094064;28;20024;-48
2022/06/16 07:31:57;;;;;;;3.58;1.10;;;23.80;90.20;;;;;;5093863;28;20032;-47
2022/06/16 07:34:24;;;;;;;0.98;0.80;;;24.10;65.70;;;;;;5094135;28;20069;-49
2022/06/16 07:36:50;;;;;;;1.15;0.70;;;24.10;90.30;;;;;;5093826;28;20027;-48
2022/06/16 07:39:16;;;;;;;1.15;1.00;;;;;;;;;;5093795;28;20486;-48
2022/06/16 07:41:42;;;;;;;1.77;1.05;;;;;;;;;;5093638;28;20040;-49
2022/06/16 07:44:10;;;;;;;1.00;0.80;;;23.90;86.30;;;;;;5093661;28;20112;-50
2022/06/16 07:46:37;;;;;;;1.77;0.90;;;24.20;90.90;;;;;;5094017;28;20441;-52
2022/06/16 07:49:06;;;;;;;1.42;1.02;;;23.90;55.60;;;;;;5093680;28;20054;-49
2022/06/16 07:51:32;;;;;;;1.13;1.02;;;23.90;91.30;;;;;;5093932;28;20056;-49
2022/06/16 07:53:58;;;;;;;0.90;0.80;;;24.20;90.90;;;;;;5093589;28;20512;-49
2022/06/16 07:56:24;;;;;;;1.63;0.90;;;;;;;;;;5093747;28;20028;-47
2022/06/16 07:58:50;;;;;;;1.35;0.73;;;23.90;54.20;;;;;;5093716;28;20074;-51
2022/06/16 08:01:16;;;;;;;1.58;1.00;;;;;;;;;;5093523;28;20036;-50
2022/06/16 08:03:42;;;;;;;1.10;0.80;;;;;;;;;;5093172;28;20466;-50
2022/06/16 08:06:15;;;;;;;1.15;1.05;;;23.80;56.30;;;;;;5093657;28;20032;-48
2022/06/16 08:08:41;;;;;;;1.50;1.10;;;23.60;91.00;;;;;;5093419;28;20030;-48
2022/06/16 08:12:03;;;;;;;2.40;0.73;;;;;;;;;;5093193;28;20107;-48
2022/06/16 08:13:54;;;;;;;1.58;0.90;;;23.80;53.60;;;;;;5092473;28;20483;-47
2022/06/16 08:16:20;;;;;;;1.55;0.90;;;23.30;90.80;;;;;;5093150;28;20031;-48
2022/06/16 08:18:46;;;;;;;1.10;0.90;;;;;;;;;;5093360;28;20024;-48
2022/06/16 08:21:12;;;;;;;1.80;1.08;;;;;;;;;;5093207;28;20104;-48
2022/06/16 08:23:38;;;;;;;1.52;0.80;;;;;;;;;;5092883;28;20081;-48
2022/06/16 08:26:04;;;;;;;1.02;0.70;;;24.00;90.50;;;;;;5092708;28;20028;-48
2022/06/16 08:28:32;;;;;;;1.90;0.85;;;24.20;90.50;;;;;;5092930;28;20020;-49
2022/06/16 08:30:58;;;;;;;1.75;0.80;;;;;;;;;;5092909;28;20534;-48
2022/06/16 08:33:24;;;;;;;1.60;0.90;;;;;;;;;;5092801;28;20028;-52
2022/06/16 08:35:49;;;;;;;1.55;1.00;;;24.40;90.00;;;;;;5093110;28;20063;-52
2022/06/16 08:38:15;;;;;;;3.50;1.20;;;24.20;54.40;;;;;;5092692;28;20074;-48
2022/06/16 08:40:44;;;;;;;1.63;0.80;;;23.90;53.30;;;;;;5092566;28;20047;-48
2022/06/16 08:43:26;;;;;;;1.13;1.00;;;24.10;90.40;;;;;;5092781;28;20021;-49
2022/06/16 08:45:58;;;;;;;1.20;0.80;;;23.90;90.10;;;;;;5092590;28;20020;-49
2022/06/16 08:48:45;;;;;;;1.65;0.90;;;24.20;90.10;;;;;;5092591;28;20030;-48
2022/06/16 08:51:43;;;;;;;0.93;0.70;;;24.20;90.20;;;;;;5092543;28;20035;-49
2022/06/16 08:54:42;;;;;;;1.25;0.70;;;23.70;90.00;;;;;;5070806;28;20474;-52
2022/06/16 08:57:20;;;;;;;1.75;0.95;;;24.40;90.20;;;;;;5092792;28;20023;-48
2022/06/16 09:00:06;;;;;;;1.85;1.08;;;24.50;90.00;;;;;;5092587;28;20019;-50
2022/06/16 09:02:35;;;;;;;1.20;1.00;;;24.20;89.90;;;;;;5092247;28;20046;-48
2022/06/16 09:05:15;;;;;;;1.15;0.85;;;24.40;89.80;;;;;;5092418;28;20080;-49
2022/06/16 09:07:41;;;;;;;0.77;0.40;;;;;;;;;;5092379;28;20040;-49
2022/06/16 09:10:16;;;;;;;1.27;0.80;;;24.30;49.60;;;;;;5092270;28;20027;-49
2022/06/16 09:13:04;;;;;;;4.78;0.80;;;24.10;89.90;;;;;;5092350;28;20036;-47
2022/06/16 09:15:37;;;;;;;1.88;0.80;;;24.50;90.00;;;;;;5092267;28;20474;-50
2022/06/16 09:18:54;;;;;;;1.25;0.70;;;24.40;49.50;;;;;;5092617;28;20035;-48
2022/06/16 09:21:47;;;;;;;1.65;0.80;;;24.00;51.10;;;;;;5049785;28;20139;-49
2022/06/16 09:24:26;;;;;;;0.52;0.52;;;24.60;90.40;;;;;;5092254;28;20043;-48
2022/06/16 09:27:17;;;;;;;0.68;0.68;;;24.50;54.60;;;;;;5092479;28;20036;-48
2022/06/16 09:29:58;;;;;;;0.90;0.60;;;24.50;90.60;;;;;;5091872;28;20074;-50
2022/06/16 09:32:27;;;;;;;1.98;0.70;;;24.10;90.20;;;;;;5092123;28;20471;-49
2022/06/16 09:35:20;;;;;;;1.48;0.68;;;24.30;90.30;;;;;;5092043;28;20064;-48
2022/06/16 09:38:19;;;;;;;1.17;0.98;;;24.70;90.20;;;;;;5096268;28;20028;-49
2022/06/16 09:41:01;;;;;;;1.05;0.70;;;24.70;49.30;;;;;;5096054;28;20482;-48
2022/06/16 09:43:42;;;;;;;1.48;0.90;;;24.70;49.20;;;;;;5096074;28;20121;-49
2022/06/16 09:46:13;;;;;;;1.23;0.70;;;24.50;89.40;;;;;;5096148;28;20056;-48
2022/06/16 09:48:46;;;;;;;0.85;0.70;;;24.80;53.00;;;;;;5095987;28;20418;-48
2022/06/16 09:51:19;;;;;;;1.63;0.60;;;24.80;52.90;;;;;;5095895;28;20057;-48
2022/06/16 09:53:46;;;;;;;0.88;0.50;;;25.10;89.20;;;;;;5095927;28;20294;-48
2022/06/16 09:56:23;;;;;;;1.25;0.70;;;24.60;88.80;;;;;;5096234;28;20047;-49
2022/06/16 09:58:59;;;;;;;1.33;0.52;;;24.50;88.20;;;;;;5095815;28;20077;-48
2022/06/16 10:01:30;;;;;;;1.20;0.70;;;24.90;52.80;;;;;;5095495;28;20039;-48
2022/06/16 10:04:02;;;;;;;0.85;0.70;;;25.00;52.60;;;;;;5095485;28;20040;-48
2022/06/16 10:06:34;;;;;;;0.98;0.57;;;25.10;89.00;;;;;;5095525;28;20040;-48
2022/06/16 10:09:18;;;;;;;1.20;0.80;;;24.90;85.40;;;;;;5095625;28;20099;-48
2022/06/16 10:11:59;;;;;;;0.85;0.80;;;25.00;89.00;;;;;;5095774;28;20383;-47
2022/06/16 10:14:38;;;;;;;0.70;0.70;;;25.10;53.10;;;;;;5095610;28;20028;-50
2022/06/16 10:17:09;;;;;;;3.92;0.70;;;25.10;53.10;;;;;;5095660;28;20071;-50
2022/06/16 10:19:38;;;;;;;1.05;0.98;;;25.40;90.30;;;;;;5095324;28;20052;-49
2022/06/16 10:22:05;;;;;;;1.13;0.65;;;25.40;90.10;;;;;;5095237;28;20081;-51
2022/06/16 10:24:37;;;;;;;0.90;0.50;;;25.10;53.20;;;;;;5095281;28;20055;-49
2022/06/16 10:27:03;;;;;;;0.55;0.50;;;;;;;;;;5095581;28;20402;-52
2022/06/16 10:29:33;;;;;;;0.80;0.70;;;25.20;52.00;;;;;;5095193;28;20470;-52
2022/06/16 10:32:00;;;;;;;0.88;0.57;;;25.70;52.40;;;;;;5095543;28;20036;-52
2022/06/16 10:34:35;;;;;;;2.78;0.88;;;25.00;87.80;;;;;;5095188;28;20020;-49
2022/06/16 10:37:13;;;;;;;2.97;0.70;;;25.60;62.10;;;;;;5095043;28;20061;-49
2022/06/16 10:39:49;;;;;;;0.68;0.60;;;24.80;55.60;;;;;;5095193;28;20070;-52
2022/06/16 10:42:23;;;;;;;1.08;0.52;;;25.30;88.00;;;;;;5095117;28;20056;-52
2022/06/16 10:45:06;;;;;;;0.57;0.57;;;25.30;51.60;;;;;;5094871;28;20083;-51
2022/06/16 10:47:46;;;;;;;0.68;0.60;;;24.80;87.50;;;;;;5094138;28;20449;-50
2022/06/16 10:50:39;;;;;;;2.53;0.60;;;25.30;52.30;;;;;;5094847;28;20028;-48
2022/06/16 10:53:18;;;;;;;0.95;0.55;;;25.00;88.10;;;;;;5081256;28;20043;-48
2022/06/16 10:55:46;;;;;;;3.47;1.08;;;25.50;88.10;;;;;;5094608;28;20020;-49
2022/06/16 10:58:25;;;;;;;1.52;0.70;;;25.50;88.40;;;;;;5094911;28;20032;-49
2022/06/16 11:01:16;;;;;;;0.70;0.60;;;25.70;54.90;;;;;;5094807;28;20032;-49
2022/06/16 11:03:42;;;;;;;;;;;25.40;52.70;;;;;;5094801;28;20066;-48
2022/06/16 11:06:08;;;;;;;0.75;0.52;;;25.80;88.70;;;;;;5094500;28;20317;-49
2022/06/16 11:08:37;;;;;;;1.05;0.70;;;25.80;88.20;;;;;;5094407;28;20020;-49
2022/06/16 11:11:04;;;;;;;1.00;0.70;;;;;;;;;;5094500;28;20093;-49
2022/06/16 11:13:37;;;;;;;1.05;0.60;;;25.10;87.10;;;;;;5094504;28;20429;-50
2022/06/16 11:16:10;;;;;;;0.68;0.60;;;25.50;48.30;;;;;;5094424;28;20483;-51
2022/06/16 11:18:37;;;;;;;1.35;0.98;;;25.50;51.70;;;;;;5094175;28;20031;-49
2022/06/16 11:21:15;;;;;;;1.17;0.60;;;25.60;51.60;;;;;;5094270;28;20402;-51
2022/06/16 11:23:47;;;;;;;0.60;0.60;;;25.60;51.50;;;;;;5094026;28;20028;-48
2022/06/16 11:26:42;;;;;;;1.85;0.80;;;25.80;56.90;;;;;;5094151;28;20532;-49
2022/06/16 11:29:11;;;;;;;0.57;0.50;;;25.80;87.80;;;;;;5091705;28;20078;-49
2022/06/16 11:31:37;;;;;;;1.58;0.80;;;;;;;;;;5093945;28;20034;-47
2022/06/16 11:34:14;;;;;;;0.80;0.70;;;25.60;48.30;;;;;;5093847;28;20024;-48
2022/06/16 11:37:05;;;;;;;1.08;0.65;;;25.50;87.40;;;;;;5094362;28;20364;-48
2022/06/16 11:39:36;;;;;;;1.40;0.73;;;26.00;87.90;;;;;;5093857;28;20039;-50
2022/06/16 11:42:02;;;;;;;0.98;0.68;;;26.00;77.80;;;;;;5093409;28;20036;-48
2022/06/16 11:44:55;;;;;;;1.85;0.68;;;25.70;87.40;;;;;;5093916;28;20024;-49
2022/06/16 11:47:26;;;;;;;0.60;0.60;;;25.70;87.40;;;;;;5093701;28;20086;-48
2022/06/16 11:50:10;;;;;;;0.80;0.60;;;25.20;87.10;;;;;;5093657;28;20038;-50
2022/06/16 11:52:54;;;;;;;0.60;0.60;;;25.50;78.20;;;;;;5093591;28;20060;-51
2022/06/16 11:55:39;;;;;;;0.95;0.68;;;25.80;87.60;;;;;;5093568;28;20028;-49
2022/06/16 11:58:29;;;;;;;1.20;0.82;;;26.10;87.80;;;;;;5093450;28;20375;-51
2022/06/16 12:01:11;;;;;;;0.90;0.60;;;25.70;87.40;;;;;;5092687;28;20050;-50
2022/06/16 12:04:18;;;;;;;1.95;0.50;;;25.70;87.40;;;;;;5093307;28;20036;-50
2022/06/16 12:06:57;;;;;;;0.63;0.50;;;25.70;87.60;;;;;;5059174;28;20481;-50
2022/06/16 12:09:35;;;;;;;0.73;0.68;;;26.00;87.80;;;;;;5093137;28;20036;-50
2022/06/16 12:12:19;;;;;;;1.23;0.70;;;25.50;61.60;;;;;;5093261;28;20028;-50
2022/06/16 12:15:18;;;;;;;0.70;0.70;;;28.20;50.00;;;;;;5093456;28;20054;-49
2022/06/16 12:18:08;;;;;;;0.50;0.50;;;25.60;86.60;;;;;;5093129;28;20030;-50
2022/06/16 12:20:56;;;;;;;1.48;0.70;;;25.90;67.40;;;;;;5092435;28;20490;-51
2022/06/16 12:23:44;;;;;;;0.63;0.60;;;25.70;51.10;;;;;;5092843;28;20394;-48
2022/06/16 12:26:41;;;;;;;1.17;0.80;;;26.20;51.30;;;;;;5092509;28;20368;-50
2022/06/16 12:29:36;;;;;;;0.90;0.80;;;26.20;87.70;;;;;;5092833;28;20039;-52
2022/06/16 12:32:20;;;;;;;1.27;0.70;;;25.60;87.00;;;;;;5092896;28;20202;-48
2022/06/16 12:35:32;;;;;;;0.50;0.40;;;25.50;57.20;;;;;;5093088;28;20099;-52
2022/06/16 12:38:07;;;;;;;0.88;0.70;;;26.20;87.50;;;;;;5092856;28;20032;-51
2022/06/16 12:40:41;;;;;;;0.93;0.63;;;26.30;48.60;;;;;;5092971;28;20429;-50
2022/06/16 12:43:16;;;;;;;0.95;0.60;;;26.00;87.60;;;;;;5092779;28;20069;-51
2022/06/16 12:45:46;;;;;;;1.52;0.82;;;25.80;87.30;;;;;;5092766;28;20406;-53
2022/06/16 12:48:20;;;;;;;0.82;0.75;;;25.60;87.10;;;;;;5092827;28;20110;-52
2022/06/16 12:50:58;;;;;;;1.27;0.88;;;26.10;87.50;;;;;;5092862;28;20436;-50
2022/06/16 12:53:29;;;;;;;1.73;0.95;;;25.90;87.10;;;;;;5092545;28;20028;-51
2022/06/16 12:56:06;;;;;;;2.88;0.68;;;25.90;87.20;;;;;;5092437;28;20024;-50
2022/06/16 12:58:45;;;;;;;2.88;0.95;;;25.80;87.00;;;;;;5092460;28;20024;-49
2022/06/16 13:01:13;;;;;;;1.23;0.80;;;26.00;87.40;;;;;;5091864;28;20104;-48
2022/06/16 13:04:02;;;;;;;0.95;0.73;;;25.90;48.00;;;;;;5090554;28;20561;-49
2022/06/16 13:06:28;;;;;;;3.25;0.88;;;25.90;50.90;;;;;;5091292;28;20505;-49
2022/06/16 13:08:59;;;;;;;1.13;0.98;;;25.90;50.90;;;;;;5090785;28;20056;-49
2022/06/16 13:11:32;;;;;;;2.75;1.67;;;26.20;48.20;;;;;;5090892;28;20024;-49
2022/06/16 13:14:06;;;;;;;1.20;0.90;;;25.90;51.00;;;;;;5091179;28;20060;-49
2022/06/16 13:16:38;;;;;;;1.60;0.90;;;25.90;50.80;;;;;;5091242;28;20020;-48
2022/06/16 13:19:18;;;;;;;0.90;0.85;;;25.70;74.70;;;;;;5091010;28;20024;-49
2022/06/16 13:21:55;;;;;;;1.35;0.90;;;25.60;55.10;;;;;;5092180;28;20437;-48
2022/06/16 13:24:39;;;;;;;1.17;0.90;;;25.90;48.00;;;;;;5092430;28;20028;-50
2022/06/16 13:27:10;;;;;;;1.45;1.00;;;26.10;86.60;;;;;;5092126;28;20104;-53
2022/06/16 13:29:50;;;;;;;1.08;0.80;;;25.80;73.20;;;;;;5092110;28;20035;-52
2022/06/16 13:32:49;;;;;;;1.40;0.73;;;24.50;47.10;;;;;;5092061;28;20359;-52
2022/06/16 13:35:15;;;;;;;1.35;0.90;;;;;;;;;;5073996;28;20032;-51
2022/06/16 13:37:48;;;;;;;1.55;1.00;;;25.90;48.00;;;;;;5092140;28;20030;-49
2022/06/16 13:40:22;;;;;;;1.05;0.95;;;25.60;50.40;;;;;;5091967;28;20028;-50
2022/06/16 13:42:51;;;;;;;1.75;1.00;;;25.60;82.70;;;;;;5092091;28;20024;-49
2022/06/16 13:45:29;;;;;;;1.42;1.00;;;25.60;86.10;;;;;;5091906;28;20538;-50
2022/06/16 13:48:11;;;;;;;0.80;0.77;;;25.70;86.30;;;;;;5092034;28;20501;-48
2022/06/16 13:50:57;;;;;;;3.30;1.13;;;26.00;85.90;;;;;;5092151;28;20114;-52
2022/06/16 13:53:23;;;;;;;1.52;0.85;;;;;;;;;;5092052;28;20078;-51
2022/06/16 13:56:17;;;;;;;2.22;1.08;;;25.90;86.70;;;;;;5091980;28;20477;-48
2022/06/16 13:58:51;;;;;;;3.40;0.88;;;26.10;87.60;;;;;;5091946;28;20036;-49
2022/06/16 14:01:21;;;;;;;3.22;0.77;;;25.80;48.10;;;;;;5091733;28;20072;-51